sensor_id;sensor_type;location;lat;lon;timestamp;pressure;altitude;pressure_sealevel;temperature;humidity
34235;BME280;20500;49.856;20.290;2023-02-12T00:01:36;100104.55;;;3.56;77.15
34235;BME280;20500;49.856;20.290;2023-02-12T00:04:40;100099.40;;;3.60;77.25
34235;BME280;20500;49.856;20.290;2023-02-12T00:07:47;100095.27;;;3.60;77.32
34235;BME280;20500;49.856;20.290;2023-02-12T00:10:53;100095.67;;;3.60;77.29
34235;BME280;20500;49.856;20.290;2023-02-12T00:14:00;100096.65;;;3.61;77.34
34235;BME280;20500;49.856;20.290;2023-02-12T00:17:07;100095.13;;;3.64;77.31
34235;BME280;20500;49.856;20.290;2023-02-12T00:20:11;100093.29;;;3.65;77.37
34235;BME280;20500;49.856;20.290;2023-02-12T00:23:18;100091.96;;;3.66;77.48
34235;BME280;20500;49.856;20.290;2023-02-12T00:26:24;100094.05;;;3.64;77.56
34235;BME280;20500;49.856;20.290;2023-02-12T00:29:31;100092.25;;;3.64;77.54
34235;BME280;20500;49.856;20.290;2023-02-12T00:32:37;100088.27;;;3.62;77.56
34235;BME280;20500;49.856;20.290;2023-02-12T00:35:44;100090.70;;;3.61;77.67
34235;BME280;20500;49.856;20.290;2023-02-12T00:38:49;100096.27;;;3.63;77.71
34235;BME280;20500;49.856;20.290;2023-02-12T00:41:56;100099.51;;;3.66;77.80
34235;BME280;20500;49.856;20.290;2023-02-12T00:45:00;100100.13;;;3.67;77.94
34235;BME280;20500;49.856;20.290;2023-02-12T00:48:07;100103.57;;;3.69;77.96
34235;BME280;20500;49.856;20.290;2023-02-12T00:51:13;100101.76;;;3.70;77.92
34235;BME280;20500;49.856;20.290;2023-02-12T00:54:18;100101.39;;;3.69;78.00
34235;BME280;20500;49.856;20.290;2023-02-12T00:57:24;100101.23;;;3.71;78.09
34235;BME280;20500;49.856;20.290;2023-02-12T01:00:30;100101.48;;;3.73;78.02
34235;BME280;20500;49.856;20.290;2023-02-12T01:03:35;100103.02;;;3.74;78.09
34235;BME280;20500;49.856;20.290;2023-02-12T01:06:42;100105.09;;;3.73;78.18
34235;BME280;20500;49.856;20.290;2023-02-12T01:09:48;100102.81;;;3.72;78.15
34235;BME280;20500;49.856;20.290;2023-02-12T01:12:53;100106.41;;;3.72;78.18
34235;BME280;20500;49.856;20.290;2023-02-12T01:16:12;100108.93;;;3.72;78.29
34235;BME280;20500;49.856;20.290;2023-02-12T01:19:19;100114.02;;;3.73;78.34
34235;BME280;20500;49.856;20.290;2023-02-12T01:22:24;100114.20;;;3.73;78.27
34235;BME280;20500;49.856;20.290;2023-02-12T01:25:30;100120.08;;;3.74;78.37
34235;BME280;20500;49.856;20.290;2023-02-12T01:28:36;100116.40;;;3.73;78.38
34235;BME280;20500;49.856;20.290;2023-02-12T01:31:43;100115.80;;;3.74;78.43
34235;BME280;20500;49.856;20.290;2023-02-12T01:34:47;100120.41;;;3.75;78.55
34235;BME280;20500;49.856;20.290;2023-02-12T01:37:54;100125.18;;;3.75;78.52
34235;BME280;20500;49.856;20.290;2023-02-12T01:41:07;100123.45;;;3.75;78.57
34235;BME280;20500;49.856;20.290;2023-02-12T01:44:16;100130.13;;;3.74;78.55
34235;BME280;20500;49.856;20.290;2023-02-12T01:47:24;100135.68;;;3.77;78.68
34235;BME280;20500;49.856;20.290;2023-02-12T01:50:30;100138.79;;;3.78;78.65
34235;BME280;20500;49.856;20.290;2023-02-12T01:53:38;100141.39;;;3.79;78.56
34235;BME280;20500;49.856;20.290;2023-02-12T01:56:48;100138.10;;;3.83;78.78
34235;BME280;20500;49.856;20.290;2023-02-12T01:59:55;100140.31;;;3.84;78.72
34235;BME280;20500;49.856;20.290;2023-02-12T02:03:04;100140.56;;;3.83;78.78
34235;BME280;20500;49.856;20.290;2023-02-12T02:06:13;100144.55;;;3.83;78.82
34235;BME280;20500;49.856;20.290;2023-02-12T02:09:21;100150.81;;;3.81;78.80
34235;BME280;20500;49.856;20.290;2023-02-12T02:12:26;100159.23;;;3.79;78.83
34235;BME280;20500;49.856;20.290;2023-02-12T02:15:53;100158.94;;;3.78;78.96
34235;BME280;20500;49.856;20.290;2023-02-12T02:19:04;100162.16;;;3.78;79.17
34235;BME280;20500;49.856;20.290;2023-02-12T02:22:25;100168.45;;;3.78;79.08
34235;BME280;20500;49.856;20.290;2023-02-12T02:25:55;100174.96;;;3.77;79.14
34235;BME280;20500;49.856;20.290;2023-02-12T02:29:43;100180.79;;;3.76;79.13
34235;BME280;20500;49.856;20.290;2023-02-12T02:32:56;100190.77;;;3.75;79.18
34235;BME280;20500;49.856;20.290;2023-02-12T02:36:16;100198.27;;;3.75;79.25
34235;BME280;20500;49.856;20.290;2023-02-12T02:39:35;100207.52;;;3.74;79.20
34235;BME280;20500;49.856;20.290;2023-02-12T02:42:46;100211.73;;;3.73;79.33
34235;BME280;20500;49.856;20.290;2023-02-12T02:45:57;100217.06;;;3.74;79.25
34235;BME280;20500;49.856;20.290;2023-02-12T02:49:07;100225.80;;;3.75;79.37
34235;BME280;20500;49.856;20.290;2023-02-12T02:52:23;100228.19;;;3.76;79.44
34235;BME280;20500;49.856;20.290;2023-02-12T02:55:36;100230.96;;;3.77;79.46
34235;BME280;20500;49.856;20.290;2023-02-12T02:58:45;100240.66;;;3.78;79.47
34235;BME280;20500;49.856;20.290;2023-02-12T03:01:58;100242.16;;;3.76;79.44
34235;BME280;20500;49.856;20.290;2023-02-12T03:05:11;100244.91;;;3.73;79.37
34235;BME280;20500;49.856;20.290;2023-02-12T03:08:21;100242.02;;;3.71;79.52
34235;BME280;20500;49.856;20.290;2023-02-12T03:11:31;100252.98;;;3.71;79.71
34235;BME280;20500;49.856;20.290;2023-02-12T03:14:39;100262.94;;;3.72;79.73
34235;BME280;20500;49.856;20.290;2023-02-12T03:17:49;100257.48;;;3.73;79.79
34235;BME280;20500;49.856;20.290;2023-02-12T03:21:00;100263.63;;;3.73;79.81
34235;BME280;20500;49.856;20.290;2023-02-12T03:24:13;100263.45;;;3.73;79.82
34235;BME280;20500;49.856;20.290;2023-02-12T03:27:25;100266.14;;;3.73;79.91
34235;BME280;20500;49.856;20.290;2023-02-12T03:30:39;100274.13;;;3.72;79.87
34235;BME280;20500;49.856;20.290;2023-02-12T03:33:54;100283.41;;;3.72;79.92
34235;BME280;20500;49.856;20.290;2023-02-12T03:37:08;100291.44;;;3.73;79.97
34235;BME280;20500;49.856;20.290;2023-02-12T03:40:19;100287.63;;;3.73;79.94
34235;BME280;20500;49.856;20.290;2023-02-12T03:43:30;100298.48;;;3.70;79.90
34235;BME280;20500;49.856;20.290;2023-02-12T03:46:41;100307.48;;;3.67;79.89
34235;BME280;20500;49.856;20.290;2023-02-12T03:49:58;100309.41;;;3.65;80.02
34235;BME280;20500;49.856;20.290;2023-02-12T03:53:07;100313.74;;;3.64;80.09
34235;BME280;20500;49.856;20.290;2023-02-12T03:56:12;100317.07;;;3.63;80.07
34235;BME280;20500;49.856;20.290;2023-02-12T03:59:21;100332.94;;;3.62;80.25
34235;BME280;20500;49.856;20.290;2023-02-12T04:02:28;100340.36;;;3.64;80.26
34235;BME280;20500;49.856;20.290;2023-02-12T04:05:35;100340.38;;;3.66;80.21
34235;BME280;20500;49.856;20.290;2023-02-12T04:08:42;100351.43;;;3.67;80.24
34235;BME280;20500;49.856;20.290;2023-02-12T04:11:57;100360.13;;;3.66;80.14
34235;BME280;20500;49.856;20.290;2023-02-12T04:15:15;100370.73;;;3.66;80.19
34235;BME280;20500;49.856;20.290;2023-02-12T04:18:28;100366.56;;;3.67;80.32
34235;BME280;20500;49.856;20.290;2023-02-12T04:21:47;100374.20;;;3.68;80.36
34235;BME280;20500;49.856;20.290;2023-02-12T04:25:09;100376.30;;;3.69;80.37
34235;BME280;20500;49.856;20.290;2023-02-12T04:28:27;100386.23;;;3.68;80.37
34235;BME280;20500;49.856;20.290;2023-02-12T04:31:42;100395.23;;;3.68;80.40
34235;BME280;20500;49.856;20.290;2023-02-12T04:34:55;100406.44;;;3.66;80.31
34235;BME280;20500;49.856;20.290;2023-02-12T04:38:06;100403.71;;;3.61;80.27
34235;BME280;20500;49.856;20.290;2023-02-12T04:41:14;100399.53;;;3.57;80.37
34235;BME280;20500;49.856;20.290;2023-02-12T04:44:24;100401.55;;;3.54;80.32
34235;BME280;20500;49.856;20.290;2023-02-12T04:47:30;100408.66;;;3.52;80.33
34235;BME280;20500;49.856;20.290;2023-02-12T04:50:38;100417.74;;;3.51;80.25
34235;BME280;20500;49.856;20.290;2023-02-12T04:53:45;100429.73;;;3.46;80.35
34235;BME280;20500;49.856;20.290;2023-02-12T04:56:51;100439.92;;;3.44;80.43
34235;BME280;20500;49.856;20.290;2023-02-12T04:59:58;100441.17;;;3.41;80.27
34235;BME280;20500;49.856;20.290;2023-02-12T05:03:04;100445.73;;;3.40;80.35
34235;BME280;20500;49.856;20.290;2023-02-12T05:06:11;100452.33;;;3.38;80.33
34235;BME280;20500;49.856;20.290;2023-02-12T05:09:19;100457.80;;;3.34;80.34
34235;BME280;20500;49.856;20.290;2023-02-12T05:12:25;100461.02;;;3.31;80.42
34235;BME280;20500;49.856;20.290;2023-02-12T05:15:32;100464.16;;;3.28;80.28
34235;BME280;20500;49.856;20.290;2023-02-12T05:18:36;100471.46;;;3.23;80.20
34235;BME280;20500;49.856;20.290;2023-02-12T05:21:43;100474.88;;;3.17;80.28
34235;BME280;20500;49.856;20.290;2023-02-12T05:24:47;100483.34;;;3.14;80.31
34235;BME280;20500;49.856;20.290;2023-02-12T05:27:54;100484.30;;;3.10;80.33
34235;BME280;20500;49.856;20.290;2023-02-12T05:31:02;100492.33;;;3.08;80.47
34235;BME280;20500;49.856;20.290;2023-02-12T05:34:11;100496.27;;;3.08;80.49
34235;BME280;20500;49.856;20.290;2023-02-12T05:37:17;100501.30;;;3.08;80.54
34235;BME280;20500;49.856;20.290;2023-02-12T05:40:24;100509.01;;;3.08;80.57
34235;BME280;20500;49.856;20.290;2023-02-12T05:43:28;100514.63;;;3.10;80.59
34235;BME280;20500;49.856;20.290;2023-02-12T05:46:35;100521.92;;;3.11;80.63
34235;BME280;20500;49.856;20.290;2023-02-12T05:49:41;100527.60;;;3.12;80.58
34235;BME280;20500;49.856;20.290;2023-02-12T05:52:47;100528.52;;;3.09;80.52
34235;BME280;20500;49.856;20.290;2023-02-12T05:55:52;100527.06;;;3.07;80.61
34235;BME280;20500;49.856;20.290;2023-02-12T05:59:00;100534.66;;;3.08;80.68
34235;BME280;20500;49.856;20.290;2023-02-12T06:02:07;100535.34;;;3.12;80.71
34235;BME280;20500;49.856;20.290;2023-02-12T06:05:12;100532.79;;;3.15;80.63
34235;BME280;20500;49.856;20.290;2023-02-12T06:08:18;100539.38;;;3.15;80.72
34235;BME280;20500;49.856;20.290;2023-02-12T06:11:23;100540.60;;;3.16;80.73
34235;BME280;20500;49.856;20.290;2023-02-12T06:14:29;100544.09;;;3.15;80.63
34235;BME280;20500;49.856;20.290;2023-02-12T06:17:35;100543.86;;;3.16;80.75
34235;BME280;20500;49.856;20.290;2023-02-12T06:20:42;100545.27;;;3.13;80.57
34235;BME280;20500;49.856;20.290;2023-02-12T06:23:47;100559.33;;;3.04;80.25
34235;BME280;20500;49.856;20.290;2023-02-12T06:26:53;100575.01;;;2.91;80.32
34235;BME280;20500;49.856;20.290;2023-02-12T06:29:59;100578.89;;;2.83;80.12
34235;BME280;20500;49.856;20.290;2023-02-12T06:33:04;100589.20;;;2.76;80.19
34235;BME280;20500;49.856;20.290;2023-02-12T06:36:10;100594.84;;;2.69;80.17
34235;BME280;20500;49.856;20.290;2023-02-12T06:39:17;100597.39;;;2.66;80.37
34235;BME280;20500;49.856;20.290;2023-02-12T06:42:23;100601.19;;;2.65;80.37
34235;BME280;20500;49.856;20.290;2023-02-12T06:45:28;100605.39;;;2.64;80.28
34235;BME280;20500;49.856;20.290;2023-02-12T06:48:34;100610.98;;;2.60;80.23
34235;BME280;20500;49.856;20.290;2023-02-12T06:51:39;100623.02;;;2.57;80.27
34235;BME280;20500;49.856;20.290;2023-02-12T06:54:45;100626.52;;;2.53;80.16
34235;BME280;20500;49.856;20.290;2023-02-12T06:57:49;100621.73;;;2.46;80.06
34235;BME280;20500;49.856;20.290;2023-02-12T07:00:56;100622.31;;;2.42;80.10
34235;BME280;20500;49.856;20.290;2023-02-12T07:04:01;100632.13;;;2.37;80.07
34235;BME280;20500;49.856;20.290;2023-02-12T07:07:07;100639.98;;;2.29;79.92
34235;BME280;20500;49.856;20.290;2023-02-12T07:10:13;100650.97;;;2.21;79.88
34235;BME280;20500;49.856;20.290;2023-02-12T07:13:20;100658.52;;;2.15;79.89
34235;BME280;20500;49.856;20.290;2023-02-12T07:16:26;100662.38;;;2.10;79.97
34235;BME280;20500;49.856;20.290;2023-02-12T07:19:33;100662.40;;;2.04;79.80
34235;BME280;20500;49.856;20.290;2023-02-12T07:22:39;100666.27;;;1.99;79.79
34235;BME280;20500;49.856;20.290;2023-02-12T07:25:55;100670.48;;;1.97;79.78
34235;BME280;20500;49.856;20.290;2023-02-12T07:29:01;100671.19;;;1.93;79.61
34235;BME280;20500;49.856;20.290;2023-02-12T07:32:08;100674.14;;;1.89;79.62
34235;BME280;20500;49.856;20.290;2023-02-12T07:35:12;100679.84;;;1.83;79.56
34235;BME280;20500;49.856;20.290;2023-02-12T07:38:19;100680.70;;;1.77;79.54
34235;BME280;20500;49.856;20.290;2023-02-12T07:41:23;100677.45;;;1.75;79.63
34235;BME280;20500;49.856;20.290;2023-02-12T07:44:31;100677.58;;;1.73;79.62
34235;BME280;20500;49.856;20.290;2023-02-12T07:47:38;100683.36;;;1.68;79.55
34235;BME280;20500;49.856;20.290;2023-02-12T07:50:44;100693.80;;;1.67;79.55
34235;BME280;20500;49.856;20.290;2023-02-12T07:53:51;100698.60;;;1.65;79.45
34235;BME280;20500;49.856;20.290;2023-02-12T07:56:58;100705.10;;;1.63;79.54
34235;BME280;20500;49.856;20.290;2023-02-12T08:00:07;100707.66;;;1.62;79.52
34235;BME280;20500;49.856;20.290;2023-02-12T08:03:13;100706.86;;;1.61;79.47
34235;BME280;20500;49.856;20.290;2023-02-12T08:06:21;100708.45;;;1.61;79.47
34235;BME280;20500;49.856;20.290;2023-02-12T08:09:29;100712.59;;;1.64;79.59
34235;BME280;20500;49.856;20.290;2023-02-12T08:12:36;100721.34;;;1.65;79.36
34235;BME280;20500;49.856;20.290;2023-02-12T08:15:42;100723.79;;;1.62;79.33
34235;BME280;20500;49.856;20.290;2023-02-12T08:18:49;100726.73;;;1.61;79.31
34235;BME280;20500;49.856;20.290;2023-02-12T08:21:56;100721.08;;;1.60;79.35
34235;BME280;20500;49.856;20.290;2023-02-12T08:25:03;100720.75;;;1.62;79.27
34235;BME280;20500;49.856;20.290;2023-02-12T08:28:09;100717.79;;;1.61;79.24
34235;BME280;20500;49.856;20.290;2023-02-12T08:31:19;100719.45;;;1.57;79.15
34235;BME280;20500;49.856;20.290;2023-02-12T08:34:27;100723.78;;;1.56;79.14
34235;BME280;20500;49.856;20.290;2023-02-12T08:37:34;100727.65;;;1.57;79.19
34235;BME280;20500;49.856;20.290;2023-02-12T08:40:40;100734.02;;;1.56;79.20
34235;BME280;20500;49.856;20.290;2023-02-12T08:43:44;100740.15;;;1.55;79.05
34235;BME280;20500;49.856;20.290;2023-02-12T08:46:52;100740.52;;;1.51;78.97
34235;BME280;20500;49.856;20.290;2023-02-12T08:49:59;100743.52;;;1.48;79.07
34235;BME280;20500;49.856;20.290;2023-02-12T08:53:06;100743.96;;;1.54;79.06
34235;BME280;20500;49.856;20.290;2023-02-12T08:56:13;100745.58;;;1.57;78.73
34235;BME280;20500;49.856;20.290;2023-02-12T08:59:20;100749.86;;;1.57;78.67
34235;BME280;20500;49.856;20.290;2023-02-12T09:02:24;100755.60;;;1.56;78.64
34235;BME280;20500;49.856;20.290;2023-02-12T09:05:31;100762.71;;;1.54;78.63
34235;BME280;20500;49.856;20.290;2023-02-12T09:08:38;100766.73;;;1.53;78.58
34235;BME280;20500;49.856;20.290;2023-02-12T09:11:45;100770.66;;;1.53;78.69
34235;BME280;20500;49.856;20.290;2023-02-12T09:14:49;100775.77;;;1.54;78.52
34235;BME280;20500;49.856;20.290;2023-02-12T09:17:55;100782.84;;;1.59;78.51
34235;BME280;20500;49.856;20.290;2023-02-12T09:21:04;100791.09;;;1.69;78.49
34235;BME280;20500;49.856;20.290;2023-02-12T09:24:11;100794.95;;;1.74;78.30
34235;BME280;20500;49.856;20.290;2023-02-12T09:27:16;100798.10;;;1.81;78.35
34235;BME280;20500;49.856;20.290;2023-02-12T09:30:23;100800.35;;;1.86;78.07
34235;BME280;20500;49.856;20.290;2023-02-12T09:33:29;100799.13;;;1.92;78.09
34235;BME280;20500;49.856;20.290;2023-02-12T09:36:33;100799.89;;;2.04;78.21
34235;BME280;20500;49.856;20.290;2023-02-12T09:39:40;100802.52;;;2.11;78.01
34235;BME280;20500;49.856;20.290;2023-02-12T09:42:59;100807.43;;;2.16;77.98
34235;BME280;20500;49.856;20.290;2023-02-12T09:46:12;100819.47;;;2.22;77.93
34235;BME280;20500;49.856;20.290;2023-02-12T09:49:31;100817.52;;;2.25;77.79
34235;BME280;20500;49.856;20.290;2023-02-12T09:52:46;100824.77;;;2.33;77.72
34235;BME280;20500;49.856;20.290;2023-02-12T09:55:53;100823.35;;;2.33;77.51
34235;BME280;20500;49.856;20.290;2023-02-12T09:59:03;100826.54;;;2.33;77.57
34235;BME280;20500;49.856;20.290;2023-02-12T10:02:13;100829.05;;;2.43;77.70
34235;BME280;20500;49.856;20.290;2023-02-12T10:05:25;100831.56;;;2.55;77.61
34235;BME280;20500;49.856;20.290;2023-02-12T10:08:52;100825.19;;;2.66;77.52
34235;BME280;20500;49.856;20.290;2023-02-12T10:12:05;100827.31;;;2.73;77.38
34235;BME280;20500;49.856;20.290;2023-02-12T10:15:32;100828.67;;;2.68;77.16
34235;BME280;20500;49.856;20.290;2023-02-12T10:18:53;100839.06;;;2.75;77.21
34235;BME280;20500;49.856;20.290;2023-02-12T10:22:07;100847.84;;;2.87;77.22
34235;BME280;20500;49.856;20.290;2023-02-12T10:25:25;100847.17;;;2.98;77.09
34235;BME280;20500;49.856;20.290;2023-02-12T10:28:36;100849.86;;;3.07;76.94
34235;BME280;20500;49.856;20.290;2023-02-12T10:31:46;100849.63;;;3.14;76.90
34235;BME280;20500;49.856;20.290;2023-02-12T10:34:54;100844.34;;;3.16;76.85
34235;BME280;20500;49.856;20.290;2023-02-12T10:38:06;100844.15;;;3.07;76.71
34235;BME280;20500;49.856;20.290;2023-02-12T10:41:19;100845.77;;;2.98;76.54
34235;BME280;20500;49.856;20.290;2023-02-12T10:44:25;100838.01;;;3.01;76.39
34235;BME280;20500;49.856;20.290;2023-02-12T10:47:31;100836.27;;;3.04;76.37
34235;BME280;20500;49.856;20.290;2023-02-12T10:50:40;100836.34;;;3.05;76.19
34235;BME280;20500;49.856;20.290;2023-02-12T10:53:49;100844.24;;;3.08;76.00
34235;BME280;20500;49.856;20.290;2023-02-12T10:56:56;100848.64;;;3.10;75.74
34235;BME280;20500;49.856;20.290;2023-02-12T11:00:24;100849.97;;;3.11;75.68
34235;BME280;20500;49.856;20.290;2023-02-12T11:03:32;100845.33;;;3.14;75.61
34235;BME280;20500;49.856;20.290;2023-02-12T11:06:57;100840.89;;;3.16;75.51
34235;BME280;20500;49.856;20.290;2023-02-12T11:10:20;100836.77;;;3.22;75.57
34235;BME280;20500;49.856;20.290;2023-02-12T11:13:27;100842.02;;;3.22;75.28
34235;BME280;20500;49.856;20.290;2023-02-12T11:16:36;100837.91;;;3.24;75.23
34235;BME280;20500;49.856;20.290;2023-02-12T11:19:45;100829.38;;;3.32;75.25
34235;BME280;20500;49.856;20.290;2023-02-12T11:23:21;100828.45;;;3.41;75.39
34235;BME280;20500;49.856;20.290;2023-02-12T11:26:29;100822.44;;;3.52;75.17
34235;BME280;20500;49.856;20.290;2023-02-12T11:29:37;100821.31;;;3.61;75.01
34235;BME280;20500;49.856;20.290;2023-02-12T11:32:44;100816.88;;;3.72;74.94
34235;BME280;20500;49.856;20.290;2023-02-12T11:35:52;100819.65;;;3.82;75.02
34235;BME280;20500;49.856;20.290;2023-02-12T11:38:59;100825.88;;;3.89;74.88
34235;BME280;20500;49.856;20.290;2023-02-12T11:42:13;100826.30;;;3.90;74.61
34235;BME280;20500;49.856;20.290;2023-02-12T11:45:29;100828.08;;;3.94;74.57
34235;BME280;20500;49.856;20.290;2023-02-12T11:48:38;100828.41;;;4.03;74.61
34235;BME280;20500;49.856;20.290;2023-02-12T11:51:48;100831.84;;;4.11;74.31
34235;BME280;20500;49.856;20.290;2023-02-12T11:54:57;100833.42;;;4.11;74.28
34235;BME280;20500;49.856;20.290;2023-02-12T11:58:13;100839.98;;;4.18;74.33
34235;BME280;20500;49.856;20.290;2023-02-12T12:01:23;100843.89;;;4.22;74.28
34235;BME280;20500;49.856;20.290;2023-02-12T12:04:34;100842.41;;;4.28;74.32
34235;BME280;20500;49.856;20.290;2023-02-12T12:07:44;100840.25;;;4.31;74.13
34235;BME280;20500;49.856;20.290;2023-02-12T12:10:57;100837.89;;;4.28;73.89
34235;BME280;20500;49.856;20.290;2023-02-12T12:14:12;100840.73;;;4.32;73.92
34235;BME280;20500;49.856;20.290;2023-02-12T12:17:21;100834.99;;;4.37;73.90
34235;BME280;20500;49.856;20.290;2023-02-12T12:20:51;100829.84;;;4.45;73.92
34235;BME280;20500;49.856;20.290;2023-02-12T12:24:02;100826.70;;;4.52;73.70
34235;BME280;20500;49.856;20.290;2023-02-12T12:27:17;100820.61;;;4.56;73.63
34235;BME280;20500;49.856;20.290;2023-02-12T12:30:55;100821.08;;;4.60;73.55
34235;BME280;20500;49.856;20.290;2023-02-12T12:34:07;100817.21;;;4.59;73.51
34235;BME280;20500;49.856;20.290;2023-02-12T12:37:25;100810.86;;;4.44;73.15
34235;BME280;20500;49.856;20.290;2023-02-12T12:40:52;100809.52;;;4.28;73.23
34235;BME280;20500;49.856;20.290;2023-02-12T12:44:14;100809.30;;;4.23;73.16
34235;BME280;20500;49.856;20.290;2023-02-12T12:47:29;100804.55;;;4.22;73.25
34235;BME280;20500;49.856;20.290;2023-02-12T12:51:00;100802.42;;;4.15;73.10
34235;BME280;20500;49.856;20.290;2023-02-12T12:54:18;100805.08;;;4.16;73.01
34235;BME280;20500;49.856;20.290;2023-02-12T12:57:38;100806.39;;;4.18;72.85
34235;BME280;20500;49.856;20.290;2023-02-12T13:01:03;100805.71;;;4.14;72.65
34235;BME280;20500;49.856;20.290;2023-02-12T13:07:55;100809.42;;;4.21;72.72
34235;BME280;20500;49.856;20.290;2023-02-12T13:11:11;100813.21;;;4.29;72.70
34235;BME280;20500;49.856;20.290;2023-02-12T13:14:34;100819.43;;;4.33;72.56
34235;BME280;20500;49.856;20.290;2023-02-12T13:17:49;100815.57;;;4.37;72.46
34235;BME280;20500;49.856;20.290;2023-02-12T13:21:02;100815.56;;;4.38;72.42
34235;BME280;20500;49.856;20.290;2023-02-12T13:24:20;100823.64;;;4.49;72.49
34235;BME280;20500;49.856;20.290;2023-02-12T13:27:32;100817.61;;;4.61;72.34
34235;BME280;20500;49.856;20.290;2023-02-12T13:30:45;100817.75;;;4.70;72.19
34235;BME280;20500;49.856;20.290;2023-02-12T13:33:55;100827.46;;;4.83;72.24
34235;BME280;20500;49.856;20.290;2023-02-12T13:37:05;100833.04;;;4.94;72.06
34235;BME280;20500;49.856;20.290;2023-02-12T13:40:16;100835.09;;;5.06;72.15
34235;BME280;20500;49.856;20.290;2023-02-12T13:43:38;100834.44;;;5.18;72.20
34235;BME280;20500;49.856;20.290;2023-02-12T13:46:52;100835.96;;;5.07;72.03
34235;BME280;20500;49.856;20.290;2023-02-12T13:50:05;100831.52;;;4.87;71.78
34235;BME280;20500;49.856;20.290;2023-02-12T13:53:22;100828.44;;;4.85;71.80
34235;BME280;20500;49.856;20.290;2023-02-12T13:56:36;100827.46;;;4.75;71.73
34235;BME280;20500;49.856;20.290;2023-02-12T13:59:47;100831.52;;;4.58;71.42
34235;BME280;20500;49.856;20.290;2023-02-12T14:02:53;100830.77;;;4.44;71.43
34235;BME280;20500;49.856;20.290;2023-02-12T14:06:15;100834.23;;;4.32;71.33
34235;BME280;20500;49.856;20.290;2023-02-12T14:09:28;100833.61;;;4.17;71.24
34235;BME280;20500;49.856;20.290;2023-02-12T14:12:37;100830.88;;;3.98;70.94
34235;BME280;20500;49.856;20.290;2023-02-12T14:15:49;100823.64;;;3.84;70.93
34235;BME280;20500;49.856;20.290;2023-02-12T14:23:01;100837.38;;;3.65;71.05
34235;BME280;20500;49.856;20.290;2023-02-12T14:26:09;100836.67;;;3.56;70.88
34235;BME280;20500;49.856;20.290;2023-02-12T14:29:19;100836.14;;;3.48;70.88
34235;BME280;20500;49.856;20.290;2023-02-12T14:36:17;100836.71;;;3.38;70.91
34235;BME280;20500;49.856;20.290;2023-02-12T14:39:30;100835.25;;;3.35;70.75
34235;BME280;20500;49.856;20.290;2023-02-12T14:42:55;100839.33;;;3.33;70.81
34235;BME280;20500;49.856;20.290;2023-02-12T14:46:43;100838.66;;;3.30;70.63
34235;BME280;20500;49.856;20.290;2023-02-12T14:49:52;100838.23;;;3.25;70.59
34235;BME280;20500;49.856;20.290;2023-02-12T14:53:12;100833.70;;;3.23;70.51
34235;BME280;20500;49.856;20.290;2023-02-12T14:56:25;100842.40;;;3.18;70.52
34235;BME280;20500;49.856;20.290;2023-02-12T14:59:35;100835.45;;;3.12;70.40
34235;BME280;20500;49.856;20.290;2023-02-12T15:02:47;100838.95;;;3.04;70.38
34235;BME280;20500;49.856;20.290;2023-02-12T15:06:01;100840.61;;;2.97;70.42
34235;BME280;20500;49.856;20.290;2023-02-12T15:09:10;100842.53;;;2.95;70.38
34235;BME280;20500;49.856;20.290;2023-02-12T15:12:21;100845.40;;;2.91;70.35
34235;BME280;20500;49.856;20.290;2023-02-12T15:15:41;100842.96;;;2.87;70.27
34235;BME280;20500;49.856;20.290;2023-02-12T15:18:53;100844.08;;;2.83;70.25
34235;BME280;20500;49.856;20.290;2023-02-12T15:22:01;100849.69;;;2.80;70.28
34235;BME280;20500;49.856;20.290;2023-02-12T15:25:21;100852.09;;;2.79;70.25
34235;BME280;20500;49.856;20.290;2023-02-12T15:28:30;100856.66;;;2.80;70.38
34235;BME280;20500;49.856;20.290;2023-02-12T15:31:38;100857.25;;;2.82;70.41
34235;BME280;20500;49.856;20.290;2023-02-12T15:34:48;100856.88;;;2.83;70.37
34235;BME280;20500;49.856;20.290;2023-02-12T15:37:56;100858.48;;;2.79;70.28
34235;BME280;20500;49.856;20.290;2023-02-12T15:41:04;100861.08;;;2.75;70.24
34235;BME280;20500;49.856;20.290;2023-02-12T15:44:23;100867.46;;;2.70;70.24
34235;BME280;20500;49.856;20.290;2023-02-12T15:47:30;100873.21;;;2.64;70.14
34235;BME280;20500;49.856;20.290;2023-02-12T15:50:47;100873.30;;;2.56;70.16
34235;BME280;20500;49.856;20.290;2023-02-12T15:53:56;100867.85;;;2.48;70.15
34235;BME280;20500;49.856;20.290;2023-02-12T15:57:10;100873.41;;;2.38;70.21
34235;BME280;20500;49.856;20.290;2023-02-12T16:00:29;100879.66;;;2.28;70.22
34235;BME280;20500;49.856;20.290;2023-02-12T16:03:36;100888.67;;;2.21;70.31
34235;BME280;20500;49.856;20.290;2023-02-12T16:06:43;100893.31;;;2.18;70.45
34235;BME280;20500;49.856;20.290;2023-02-12T16:09:51;100899.75;;;2.11;70.36
34235;BME280;20500;49.856;20.290;2023-02-12T16:12:57;100904.73;;;2.09;70.46
34235;BME280;20500;49.856;20.290;2023-02-12T16:16:14;100904.58;;;2.08;70.55
34235;BME280;20500;49.856;20.290;2023-02-12T16:19:23;100910.58;;;2.07;70.53
34235;BME280;20500;49.856;20.290;2023-02-12T16:22:33;100903.45;;;2.03;70.54
34235;BME280;20500;49.856;20.290;2023-02-12T16:25:41;100902.31;;;2.01;70.63
34235;BME280;20500;49.856;20.290;2023-02-12T16:28:51;100905.21;;;2.00;70.80
34235;BME280;20500;49.856;20.290;2023-02-12T16:31:59;100910.64;;;2.02;70.79
34235;BME280;20500;49.856;20.290;2023-02-12T16:35:21;100904.11;;;2.01;70.58
34235;BME280;20500;49.856;20.290;2023-02-12T16:38:43;100908.01;;;1.94;70.68
34235;BME280;20500;49.856;20.290;2023-02-12T16:41:55;100910.20;;;1.91;70.65
34235;BME280;20500;49.856;20.290;2023-02-12T16:45:01;100909.35;;;1.83;70.68
34235;BME280;20500;49.856;20.290;2023-02-12T16:48:28;100909.30;;;1.73;70.62